Back to top

Casper, Wyoming Weather

Natrona County International Airport, Casper, WY: 4/19/2019 07:53
Visibility10 statute milesclear sky
View 7-Day Forecast
Area Summary
Sky/CloudsSky Clear
Weather [last 24 hours]None
Pressure30.15 in.Hg (1021 hPa)
Dew Point34 °F (1.1 °C)
Relative Humidity53.9 %
Temperature50 °F (10 °C)red thermometer
Wind Chill44.9 °F (7.19 °C)
Reading TimeMinimum to Maximum Temperature
6-hr ending 4/19@05:5330 °F to 37.9 °F (-1.1 °C to 3.3 °C)
6-hr ending 4/18@23:5330.9 °F to 59 °F (-0.6 °C to 15 °C)
6-hr ending 4/18@17:5351.1 °F to 60.1 °F (10.6 °C to 15.6 °C)
6-hr ending 4/18@11:5330 °F to 53.1 °F (-1.1 °C to 11.7 °C)
24-hr ending 4/19@00:5330 °F to 60.1 °F (-1.1 °C to 15.6 °C)
Wind13.8 MPH (12 KT) green arrow pointing 225 degrees
Wind FromSouthwest (220 Degrees)
Rolling 24-hr Peak Wind38 MPH (33 KT) on 4/18@11:19
Rolling 24-hr Peak Wind FromNorthwest (320 Degrees)
Twilight Begins05:47Sunshine Yesterday
Sunrise06:17N/A
Sunset19:54
Twilight Ends20:24
METARKCPR 191353Z 22012KT 10SM CLR 10/01 A3015 RMK AO2 SLP187 T01000011